Acajutla, El Salvador

12:56 AM CST on July 29, 2016 (GMT -0600)
El Salvador International | | Change Station

Elev 82 ft 13.44 °N, 89.06 °W | Updated 6 minutes ago

Mostly Cloudy
Mostly Cloudy
81 °F
Feels Like 86 °F
N
6
Wind Variable Wind from NE

Today
High -- | Low -- °F
--% Chance of Precip.
Yesterday
High -- | Low -- °F
Precip. -- in
Pressure 29.86 in
Visibility 6.2 miles
Clouds Scattered Clouds 6200 ft
Mostly Cloudy 7200 ft
Heat Index 86 °F
Dew Point 75 °F
Humidity 84%
Rainfall 0.00 in
Snow Depth Not available.
5:43 AM 6:27 PM
Waning Crescent, 24% visible
METAR MSLP 290650Z 04005KT 350V120 9999 SCT062 BKN072 27/24 Q1011 A2985
Pressure 29.86 in
Visibility 6.2 miles
Clouds Scattered Clouds 6200 ft
Mostly Cloudy 7200 ft
Heat Index 86 °F
Dew Point 75 °F
Humidity 84%
Rainfall 0.00 in
Snow Depth Not available.
5:43 AM 6:27 PM
Waning Crescent, 24% visible
METAR MSLP 290650Z 04005KT 350V120 9999 SCT062 BKN072 27/24 Q1011 A2985

10-Day Weather Forecast

No radar image for this location.
×

Almanac

Astronomy

Jul. 29, 2016 Rise Set
Actual Time
Civil Twilight
Nautical Twilight
Astronomical Twilight
Moon
Length of Visible Light
Length of Day
Tomorrow will be .
, % of the Moon is Illuminated

Today's Extremes

Country Highs Country Lows

Community

WunderPhotos

Upload Photos

1,928,299 photos uploaded!

WunderBlog® & News

Nearby

Air Quality

  Air Quality AQ Index Pollutant
Not available.

Snow Depth

Station Depth Elevation

Earthquake Activity

City Distance Mag. Time & Date
Minimum magnitude displayed is 2.5.

Coastal Water Temperatures

Place Temperature

Stations

Nearby Weather Stations

Station Location Temp. Windchill Dew Point Humidity Wind Precip. Elev Updated Type